Airfield :
LOGIN :

Register | Disclaimer

   EN    FR    IT 

 










Legend :    VFR   Marginal VFR   IFR   Intensive IFR   Very Intensive IFR
Visi :
Ceiling :
>= 8 km
>= 3000ft
5 to 8 km
1000 to 3000 ft
1500m to 5 km
500 to 1000 ft
800 to 1500m
200 to 500 ft
< 800m
< 200 ft
Symbols :   Thunderstorms  Fog  Heavy snow  Heavy precipitations  Wind > 20 kt
SIGMETs :     Misc.  Thunderstorms  Icing  Turbulence  Mountain Waves  Volcanic Ashes






- Airport Elevation : 538 ft
- IATA code : TNF


LFPN - Toussus Le Noble

CURRENT METAR :
  • 161900Z AUTO 28022G35KT 230V320 5000 1100 R25R/1300D +RA BR FEW008/// OVC021/// ///TCU 11/07 Q1009

EXPIRED METARs :
  • 161830Z AUTO 22026G38KT 9999 -RA OVC025/// ///CB 15/11 Q1007 TEMPO 22025G50KT 2000 RA BKN012
  • 161800Z AUTO 22026G37KT 9999 OVC026 16/10 Q1007 TEMPO 22025G50KT 2000 RA BKN012
  • 161730Z AUTO 22026G40KT 9999 OVC028 16/10 Q1007 TEMPO 20025G50KT 2000 RA BKN012
  • 161700Z AUTO 22026G39KT 190V250 9999 OVC030 16/10 Q1006 TEMPO 20025G50KT 2000 RA BKN012
  • 161630Z AUTO 22027G43KT 9999 OVC035 17/10 Q1006 TEMPO 2000 RA BKN012

TAF TAF LFPN
Valid from the 16 at 18:00 until the 17 at 03:00 UTC


161700Z 1618/1703 21020G40KT 9999 BKN030
TEMPO 1618/1620 22025G50KT
TEMPO 1618/1624 -RA BKN020
PROB40
TEMPO 1618/1622 2000 RA BKN012
BECMG 1621/1624 23015G30KT
BECMG 1700/1703 22010G20KT SCT025
TEMPO 1700/1703 -SHRA BKN020
ATIS : +33 1 39 56 54 70



MET'MAP, your aeronautical weather chart ! - Copyright ORBIFLY December 2007 - Disclaimer

ORBIFLY MET'MAP TEAM :

Programming & Development : Alexandra Zaïnal
Concept & original design : Baudouin d'Aumeries
Assistance for programming : Marc-Olivier Méhu
Technical & hardware support : Manuel Goepfert

Contact : metmap@orbifly.com




SOURCES & CREDITS :

   NOAA